Key West, FL

5:29 PM EDT on August 29, 2015 (GMT -0400)
Key West International | | Change Station
CLOSE
Current Station
Airport
Location: Key West,
Elevation: 0 ft
Nearby Weather Stations

Elev 0 ft 24.56 °N, 81.75 °W | Updated 36 minutes ago

Partly Cloudy
Partly Cloudy
90 °F
Feels Like 104 °F
N
13
Wind Variable Wind from East

Today
High -- | Low -- °F
--% Chance of Precip.
Yesterday
High -- | Low -- °F
Precip. -- in
7:07 AM 7:48 PM
Full, 100% visible
Pressure 29.92 in
Visibility 10.0 miles
Clouds Few 2400 ft
Heat Index 104 °F
Dew Point 78 °F
Humidity 68%
Rainfall 0.02 in
Snow Depth Not available.
UV 6 out of 12
Pollen 5.40 out of 12
Air Quality Not available.
Flu Activity Not available.
METAR KEYW 292053Z 09011KT 10SM FEW024 32/26 A2992 RMK AO2 SLP131 T03220256 56024
Pressure 29.92 in
Visibility 10.0 miles
Clouds Few 2400 ft
Heat Index 104 °F
Dew Point 78 °F
Humidity 68%
Rainfall 0.02 in
Snow Depth Not available.
UV 6 out of 12
Pollen 5.40 out of 12
Air Quality Not available.
Flu Activity Not available.
METAR KEYW 292053Z 09011KT 10SM FEW024 32/26 A2992 RMK AO2 SLP131 T03220256 56024
Nowcast | as of 4:54 PM EDT on August 29, 2015

Scattered showers and isolated thunderstorms with moderate to heavy downpours will move quickly westward near 20 knots across the Florida Keys and adjacent coastal waters this evening. Heavier showers and storms will bring wind gusts near 30 knots and temporarily blinding downpours. Through 600 PM...some Keys island communities will experience a brief downpour and gusty winds. Coverage and intensity of showers and thunderstorms is expected to increase further this overnight and Sunday.

×

10-Day Weather Forecast

×

Almanac

Astronomy

Aug. 29, 2015 Rise Set
Actual Time
Civil Twilight
Nautical Twilight
Astronomical Twilight
Moon
Length of Visible Light
Length of Day
Tomorrow will be .
, % of the Moon is Illuminated

Today's Extremes

State Highs State Lows

Community

WunderPhotos

Upload Photos

1,850,805 photos uploaded!

WunderBlogs® & News

Nearby

Air Quality

  Air Quality AQ Index Pollutant
Not available.

Snow Depth

Station Depth Elevation

Earthquake Activity

City Distance Mag. Time & Date
Minimum magnitude displayed is 2.5.

Coastal Water Temperatures

Place Temperature

Stations

Nearby Weather Stations

Station Location Temp. Windchill Dew Point Humidity Wind Precip. Elev Updated Type